Time;durP1;ratioP1;P1;durP2;ratioP2;P2;SDS_P1;SDS_P2;PMS_P1;PMS_P2;Temp;Humidity;BMP_temperature;BMP_pressure;BME280_temperature;BME280_humidity;BME280_pressure;Samples;Min_cycle;Max_cycle;Signal;HPM_P1;HPM_P2
2022/01/20 00:02:05;;;;;;;;;;;;;;;;;;4876116;29;20147;-72
2022/01/20 00:04:45;;;;;;;12.88;8.68;;;;;;;;;;4893390;29;20588;-72
2022/01/20 00:07:28;;;;;;;10.68;8.27;;;;;;;;;;4916300;29;20546;-72
2022/01/20 00:26:55;;;;;;;11.25;8.88;;;;;;;;;;4930174;29;20051;-72
2022/01/20 00:29:29;;;;;;;9.77;8.38;;;;;;;;;;4928472;29;20566;-72
2022/01/20 00:32:17;;;;;;;11.05;9.38;;;;;;;;;;4927444;28;20139;-72
2022/01/20 00:37:22;;;;;;;11.68;9.85;;;;;;;;;;4931652;29;20176;-72
2022/01/20 00:39:49;;;;;;;11.15;9.18;;;;;;;;;;4915439;29;20634;-72
2022/01/20 00:42:17;;;;;;;12.13;8.45;;;;;;;;;;4941608;28;20049;-72
2022/01/20 00:44:44;;;;;;;13.80;9.30;;;;;;;;;;4949676;28;20182;-72
2022/01/20 00:47:14;;;;;;;12.93;9.25;;;;;;;;;;4947287;28;20562;-73
2022/01/20 00:49:41;;;;;;;12.68;10.80;;;;;;;;;;4947451;28;20274;-72
2022/01/20 00:52:09;;;;;;;12.20;10.63;;;;;;;;;;4963275;28;20911;-72
2022/01/20 00:54:37;;;;;;;10.52;8.52;;;;;;;;;;4961768;28;20160;-72
2022/01/20 00:57:05;;;;;;;12.88;9.80;;;;;;;;;;4960116;28;20074;-72
2022/01/20 00:59:33;;;;;;;11.50;9.82;;;;;;;;;;4970087;28;20322;-73
2022/01/20 01:02:05;;;;;;;13.23;8.73;;;;;;;;;;4965276;28;20048;-72
2022/01/20 01:04:32;;;;;;;;;;;;;;;;;;4970264;28;20781;-72
2022/01/20 01:09:47;;;;;;;11.73;10.07;;;;;;;;;;4969531;28;20236;-72
2022/01/20 01:12:23;;;;;;;11.43;9.30;;;;;;;;;;4971601;28;20057;-72
2022/01/20 01:14:53;;;;;;;9.23;7.53;;;;;;;;;;4945874;28;20762;-71
2022/01/20 01:20:15;;;;;;;10.35;8.70;;;;;;;;;;4966141;28;20113;-71
2022/01/20 01:22:35;;;;;;;11.63;8.60;;;;;;;;;;4974004;28;20042;-72
2022/01/20 01:25:03;;;;;;;8.98;8.07;;;;;;;;;;4970338;28;20327;-72
2022/01/20 01:27:34;;;;;;;8.23;7.03;;;;;;;;;;4974566;28;20038;-72
2022/01/20 01:32:57;;;;;;;9.32;7.53;;;;;;;;;;4961896;28;20302;-72
2022/01/20 01:35:27;;;;;;;9.60;7.63;;;;;;;;;;4982666;28;20094;-72
2022/01/20 01:40:26;;;;;;;7.53;6.82;;;;;;;;;;4983626;28;20133;-72
2022/01/20 01:42:54;;;;;;;5.72;4.18;;;;;;;;;;4981398;28;20042;-71
2022/01/20 01:45:27;;;;;;;8.23;6.75;;;;;;;;;;4980452;28;20396;-71
2022/01/20 01:47:56;;;;;;;10.30;7.30;;;;;;;;;;4979044;28;20466;-71
2022/01/20 01:50:25;;;;;;;9.40;7.47;;;;;;;;;;4962745;28;20546;-71
2022/01/20 01:52:53;;;;;;;8.00;6.25;;;;;;;;;;4983566;28;20042;-71
2022/01/20 01:55:21;;;;;;;9.65;7.28;;;;;;;;;;4981063;28;20870;-71
2022/01/20 01:57:49;;;;;;;10.77;7.28;;;;;;;;;;4982051;28;20097;-71
2022/01/20 02:00:19;;;;;;;9.43;6.45;;;;;;;;;;4970639;28;20119;-71
2022/01/20 02:02:52;;;;;;;9.50;7.50;;;;;;;;;;4961254;28;20042;-71
2022/01/20 02:05:31;;;;;;;8.00;6.55;;;;;;;;;;4978861;28;20433;-72
2022/01/20 02:19:18;;;;;;;8.50;6.45;;;;;;;;;;4980216;28;20050;-71
2022/01/20 02:21:47;;;;;;;;;;;;;;;;;;4957663;28;20057;-71
2022/01/20 02:24:15;;;;;;;7.88;6.70;;;;;;;;;;4970161;28;19922;-71
2022/01/20 02:26:43;;;;;;;8.23;6.40;;;;;;;;;;4984617;28;20038;-71
2022/01/20 02:29:14;;;;;;;7.80;6.32;;;;;;;;;;4984494;28;20041;-71
2022/01/20 02:31:42;;;;;;;8.82;7.43;;;;;;;;;;4987175;28;20038;-71
2022/01/20 02:34:11;;;;;;;8.15;6.47;;;;;;;;;;4983985;28;20054;-72
2022/01/20 02:36:41;;;;;;;7.05;6.35;;;;;;;;;;4990807;28;20066;-71
2022/01/20 02:39:26;;;;;;;5.30;4.22;;;;;;;;;;4984140;28;20434;-71
2022/01/20 02:44:56;;;;;;;8.27;6.65;;;;;;;;;;4990005;28;20383;-72
2022/01/20 02:47:26;;;;;;;8.57;6.88;;;;;;;;;;4990147;28;20034;-71
2022/01/20 02:49:54;;;;;;;9.40;7.30;;;;;;;;;;4990396;28;20322;-72
2022/01/20 02:52:23;;;;;;;7.47;6.22;;;;;;;;;;4973411;28;20043;-72
2022/01/20 02:54:51;;;;;;;7.45;6.65;;;;;;;;;;4974273;28;20113;-72
2022/01/20 02:57:19;;;;;;;5.13;3.97;;;;;;;;;;4989313;28;20046;-72
2022/01/20 02:59:46;;;;;;;7.82;7.03;;;;;;;;;;4987271;28;20142;-72
2022/01/20 03:02:14;;;;;;;9.25;7.15;;;;;;;;;;4987627;28;20034;-72
2022/01/20 03:04:41;;;;;;;11.00;7.55;;;;;;;;;;4984770;28;20042;-72
2022/01/20 03:07:24;;;;;;;7.90;7.00;;;;;;;;;;4986920;28;20558;-72
2022/01/20 03:09:51;;;;;;;11.50;7.72;;;;;;;;;;4988027;28;20038;-72
2022/01/20 03:12:19;;;;;;;8.82;6.78;;;;;;;;;;4987315;28;20031;-72
2022/01/20 03:14:46;;;;;;;9.10;7.70;;;;;;;;;;4972596;28;20038;-72
2022/01/20 03:17:15;;;;;;;9.23;7.68;;;;;;;;;;4980523;28;20046;-72
2022/01/20 03:19:42;;;;;;;9.48;6.93;;;;;;;;;;4988005;28;20047;-72
2022/01/20 03:22:10;;;;;;;8.02;6.80;;;;;;;;;;4986223;28;20050;-72
2022/01/20 03:24:38;;;;;;;9.38;7.63;;;;;;;;;;4970447;28;20035;-72
2022/01/20 03:27:05;;;;;;;11.43;7.57;;;;;;;;;;4987708;28;20463;-72
2022/01/20 03:29:33;;;;;;;10.95;8.07;;;;;;;;;;4987408;28;20618;-72
2022/01/20 03:32:00;;;;;;;11.18;7.95;;;;;;;;;;4983703;28;20344;-72
2022/01/20 03:34:28;;;;;;;8.65;7.10;;;;;;;;;;4980339;28;20039;-72
2022/01/20 03:37:03;;;;;;;8.70;7.50;;;;;;;;;;4985716;28;20053;-72
2022/01/20 03:39:44;;;;;;;8.70;7.40;;;;;;;;;;4972407;28;20049;-72
2022/01/20 03:42:11;;;;;;;9.77;7.97;;;;;;;;;;4988175;28;20042;-72
2022/01/20 03:44:39;;;;;;;9.18;7.28;;;;;;;;;;4980835;28;20063;-72
2022/01/20 03:47:08;;;;;;;11.75;7.45;;;;;;;;;;4986176;28;20031;-72
2022/01/20 03:52:06;;;;;;;10.43;6.82;;;;;;;;;;4987150;28;20502;-72
2022/01/20 03:54:34;;;;;;;6.65;5.65;;;;;;;;;;4988429;28;20042;-71
2022/01/20 03:57:21;;;;;;;5.15;4.32;;;;;;;;;;4974272;28;20054;-71
2022/01/20 04:00:00;;;;;;;7.05;5.90;;;;;;;;;;4987842;28;20046;-72
2022/01/20 04:02:40;;;;;;;8.07;6.60;;;;;;;;;;4987060;28;20062;-72
2022/01/20 04:05:31;;;;;;;6.18;5.20;;;;;;;;;;4984749;28;20250;-72
2022/01/20 04:08:15;;;;;;;6.68;5.68;;;;;;;;;;4980511;28;20113;-72
2022/01/20 04:10:42;;;;;;;5.78;4.70;;;;;;;;;;4986079;28;20122;-72
2022/01/20 04:13:10;;;;;;;8.05;5.32;;;;;;;;;;4987559;28;20062;-72
2022/01/20 04:15:39;;;;;;;5.82;3.95;;;;;;;;;;4982438;28;20479;-72
2022/01/20 04:18:07;;;;;;;5.07;4.53;;;;;;;;;;4986869;28;20050;-72
2022/01/20 04:20:34;;;;;;;6.13;5.53;;;;;;;;;;4967263;28;20544;-72
2022/01/20 04:23:02;;;;;;;6.72;5.72;;;;;;;;;;4985738;28;20046;-72
2022/01/20 04:25:29;;;;;;;6.15;4.13;;;;;;;;;;4986229;28;20048;-72
2022/01/20 04:27:57;;;;;;;5.97;5.38;;;;;;;;;;4986290;28;20050;-72
2022/01/20 04:30:24;;;;;;;8.23;5.53;;;;;;;;;;4981324;28;20093;-72
2022/01/20 04:32:52;;;;;;;5.43;4.88;;;;;;;;;;4984904;28;20486;-72
2022/01/20 04:35:20;;;;;;;7.03;5.57;;;;;;;;;;4984814;28;20117;-72
2022/01/20 04:37:48;;;;;;;7.03;5.65;;;;;;;;;;4978872;28;20046;-72
2022/01/20 04:40:16;;;;;;;6.57;5.32;;;;;;;;;;4982880;28;20099;-71
2022/01/20 04:42:46;;;;;;;4.93;4.32;;;;;;;;;;4986766;28;20058;-71
2022/01/20 04:45:19;;;;;;;6.72;5.75;;;;;;;;;;4987978;28;20034;-71
2022/01/20 04:47:56;;;;;;;6.60;4.80;;;;;;;;;;4988594;28;20042;-71
2022/01/20 04:58:43;;;;;;;5.03;4.53;;;;;;;;;;4987705;28;20054;-71
2022/01/20 05:01:11;;;;;;;8.82;5.28;;;;;;;;;;4986234;28;20038;-72
2022/01/20 05:03:57;;;;;;;6.40;5.32;;;;;;;;;;4985801;28;20046;-72
2022/01/20 05:06:46;;;;;;;3.75;3.45;;;;;;;;;;4985626;28;20534;-72
2022/01/20 05:09:19;;;;;;;6.50;4.60;;;;;;;;;;4982173;28;20099;-72
2022/01/20 05:11:51;;;;;;;5.22;4.32;;;;;;;;;;4976548;28;20046;-72
2022/01/20 05:14:22;;;;;;;6.28;5.40;;;;;;;;;;4952790;28;20522;-72
2022/01/20 05:16:51;;;;;;;6.68;5.25;;;;;;;;;;4985183;28;20050;-72
2022/01/20 05:19:19;;;;;;;6.40;5.13;;;;;;;;;;4986973;28;20065;-72
2022/01/20 05:21:46;;;;;;;5.00;4.45;;;;;;;;;;4962180;28;20054;-72
2022/01/20 05:24:22;;;;;;;4.70;4.28;;;;;;;;;;4974277;28;20066;-72
2022/01/20 05:26:51;;;;;;;7.43;5.15;;;;;;;;;;4980669;28;20065;-72
2022/01/20 05:29:19;;;;;;;5.95;5.28;;;;;;;;;;4980950;28;20442;-72
2022/01/20 05:31:46;;;;;;;4.55;3.95;;;;;;;;;;4979544;28;20703;-71
2022/01/20 05:34:15;;;;;;;6.88;5.15;;;;;;;;;;4982336;28;20038;-72
2022/01/20 05:36:42;;;;;;;6.68;4.80;;;;;;;;;;4993909;28;20170;-72
2022/01/20 05:39:10;;;;;;;5.22;4.70;;;;;;;;;;4983706;28;20044;-72
2022/01/20 05:41:37;;;;;;;6.53;5.30;;;;;;;;;;4971888;28;20070;-71
2022/01/20 05:44:15;;;;;;;4.07;3.67;;;;;;;;;;4982267;28;20465;-72
2022/01/20 05:46:47;;;;;;;4.40;4.00;;;;;;;;;;4982697;28;20036;-72
2022/01/20 05:49:37;;;;;;;7.35;4.75;;;;;;;;;;4966297;28;20386;-73
2022/01/20 05:52:05;;;;;;;6.97;5.20;;;;;;;;;;4974515;28;20100;-72
2022/01/20 05:54:33;;;;;;;6.28;4.43;;;;;;;;;;4985911;28;20044;-72
2022/01/20 05:57:01;;;;;;;6.28;4.75;;;;;;;;;;4982437;28;20584;-72
2022/01/20 05:59:29;;;;;;;7.72;5.20;;;;;;;;;;4985729;28;20046;-72
2022/01/20 06:02:02;;;;;;;6.72;4.75;;;;;;;;;;4983187;28;20735;-72
2022/01/20 06:04:31;;;;;;;4.88;4.47;;;;;;;;;;4979259;28;20425;-72
2022/01/20 06:06:59;;;;;;;6.57;4.95;;;;;;;;;;4976070;28;20042;-72
2022/01/20 06:09:27;;;;;;;6.75;4.80;;;;;;;;;;4939905;28;20047;-72
2022/01/20 06:11:54;;;;;;;6.60;4.97;;;;;;;;;;4967803;28;20085;-72
2022/01/20 06:14:23;;;;;;;7.70;4.90;;;;;;;;;;4969767;28;20093;-71
2022/01/20 06:16:51;;;;;;;6.28;4.63;;;;;;;;;;4982621;28;20132;-72
2022/01/20 06:19:19;;;;;;;5.78;4.70;;;;;;;;;;4980309;28;20061;-73
2022/01/20 06:21:47;;;;;;;7.10;5.57;;;;;;;;;;4980777;28;20732;-72
2022/01/20 06:24:15;;;;;;;5.90;4.82;;;;;;;;;;4984198;28;20056;-72
2022/01/20 06:26:43;;;;;;;8.77;5.82;;;;;;;;;;4987596;28;20434;-72
2022/01/20 06:29:11;;;;;;;5.00;4.50;;;;;;;;;;4986936;28;20524;-72
2022/01/20 06:31:38;;;;;;;7.28;5.18;;;;;;;;;;4971937;28;20026;-73
2022/01/20 06:34:06;;;;;;;6.93;5.53;;;;;;;;;;4983296;28;20454;-72
2022/01/20 06:36:38;;;;;;;5.93;5.32;;;;;;;;;;4986896;28;20580;-72
2022/01/20 06:39:05;;;;;;;5.78;5.13;;;;;;;;;;4987397;28;20038;-72
2022/01/20 06:41:38;;;;;;;5.05;4.55;;;;;;;;;;4970647;28;20494;-72
2022/01/20 06:44:06;;;;;;;5.07;4.57;;;;;;;;;;4971326;28;20050;-73
2022/01/20 06:46:33;;;;;;;5.70;5.20;;;;;;;;;;4984857;28;20105;-72
2022/01/20 06:49:18;;;;;;;7.47;5.97;;;;;;;;;;4971530;28;20046;-73
2022/01/20 06:52:11;;;;;;;6.50;5.53;;;;;;;;;;4985419;28;20197;-73
2022/01/20 06:54:41;;;;;;;2.25;2.10;;;;;;;;;;4987742;28;20048;-71
2022/01/20 06:57:17;;;;;;;7.45;6.60;;;;;;;;;;4969410;28;20051;-72
2022/01/20 06:59:45;;;;;;;5.80;4.00;;;;;;;;;;4971259;28;20053;-72
2022/01/20 07:02:13;;;;;;;5.68;4.78;;;;;;;;;;4971815;28;20153;-72
2022/01/20 07:04:43;;;;;;;4.88;4.47;;;;;;;;;;4970448;28;20053;-72
2022/01/20 07:07:11;;;;;;;5.07;4.57;;;;;;;;;;4970270;28;20159;-72
2022/01/20 07:10:01;;;;;;;6.05;5.30;;;;;;;;;;4962738;28;20065;-72
2022/01/20 07:12:44;;;;;;;4.70;4.25;;;;;;;;;;4978706;28;20042;-73
2022/01/20 07:15:12;;;;;;;4.97;4.55;;;;;;;;;;4987673;28;20038;-71
2022/01/20 07:17:41;;;;;;;6.53;4.78;;;;;;;;;;4989117;28;20039;-72
2022/01/20 07:20:10;;;;;;;2.83;2.63;;;;;;;;;;4987852;28;20066;-72
2022/01/20 07:22:49;;;;;;;5.20;4.50;;;;;;;;;;4981541;28;20047;-73
2022/01/20 07:25:16;;;;;;;6.32;5.53;;;;;;;;;;4988266;28;20060;-72
2022/01/20 07:28:07;;;;;;;7.00;5.20;;;;;;;;;;4989826;28;20133;-73
2022/01/20 07:30:39;;;;;;;4.80;4.40;;;;;;;;;;4989343;28;20041;-72
2022/01/20 07:33:08;;;;;;;3.90;3.42;;;;;;;;;;4989285;28;20062;-71
2022/01/20 07:35:37;;;;;;;4.93;3.15;;;;;;;;;;4988754;28;20073;-71
2022/01/20 07:38:06;;;;;;;4.88;4.38;;;;;;;;;;4989295;28;20089;-72
2022/01/20 07:40:35;;;;;;;4.90;4.43;;;;;;;;;;4970326;28;20047;-72
2022/01/20 07:43:03;;;;;;;4.60;4.03;;;;;;;;;;4968626;28;20059;-72
2022/01/20 07:45:53;;;;;;;5.18;4.78;;;;;;;;;;4978787;28;20069;-72
2022/01/20 07:48:27;;;;;;;5.50;5.00;;;;;;;;;;4988025;28;20121;-72
2022/01/20 07:51:06;;;;;;;5.78;5.10;;;;;;;;;;4989332;28;20054;-72
2022/01/20 07:53:36;;;;;;;4.82;4.32;;;;;;;;;;4989299;28;20486;-72
2022/01/20 07:56:05;;;;;;;4.63;4.20;;;;;;;;;;4971006;28;20113;-72
2022/01/20 07:58:36;;;;;;;4.32;4.03;;;;;;;;;;4971418;28;20046;-72
2022/01/20 08:01:04;;;;;;;5.22;4.72;;;;;;;;;;4987064;28;20096;-72
2022/01/20 08:03:38;;;;;;;6.95;5.40;;;;;;;;;;4972168;28;20529;-72
2022/01/20 08:06:10;;;;;;;3.83;3.33;;;;;;;;;;4967249;28;20546;-71
2022/01/20 08:08:41;;;;;;;5.60;5.03;;;;;;;;;;4970310;28;20054;-71
2022/01/20 08:11:37;;;;;;;6.55;4.20;;;;;;;;;;4983048;28;20446;-71
2022/01/20 08:14:39;;;;;;;5.43;4.72;;;;;;;;;;4930463;29;20369;-71
2022/01/20 08:17:10;;;;;;;5.40;4.45;;;;;;;;;;4893915;29;20056;-72
2022/01/20 08:19:42;;;;;;;4.40;4.00;;;;;;;;;;4910207;29;20044;-71
2022/01/20 08:22:09;;;;;;;4.45;4.05;;;;;;;;;;4897545;29;20058;-72
2022/01/20 08:24:57;;;;;;;4.30;3.83;;;;;;;;;;4864082;29;20059;-71
2022/01/20 08:27:25;;;;;;;4.85;4.25;;;;;;;;;;4891926;29;20040;-71
2022/01/20 08:29:53;;;;;;;3.30;3.03;;;;;;;;;;4894521;29;20044;-71
2022/01/20 08:32:24;;;;;;;2.95;2.75;;;;;;;;;;4891229;29;20068;-71
2022/01/20 08:35:09;;;;;;;5.95;3.20;;;;;;;;;;4909819;29;20052;-71
2022/01/20 08:38:03;;;;;;;3.85;3.47;;;;;;;;;;4890547;29;20052;-71
2022/01/20 08:40:31;;;;;;;4.57;3.80;;;;;;;;;;4908941;29;20143;-72
2022/01/20 08:42:59;;;;;;;5.45;4.15;;;;;;;;;;4878961;29;20056;-71
2022/01/20 08:45:30;;;;;;;3.25;2.95;;;;;;;;;;4893695;29;21202;-71
2022/01/20 08:47:59;;;;;;;5.43;4.28;;;;;;;;;;4894760;29;20119;-71
2022/01/20 08:50:43;;;;;;;3.78;3.42;;;;;;;;;;4946921;28;20054;-71
2022/01/20 08:53:11;;;;;;;4.88;3.92;;;;;;;;;;4988057;28;20248;-71
2022/01/20 08:55:39;;;;;;;3.95;3.42;;;;;;;;;;4987509;28;20046;-71
2022/01/20 08:58:13;;;;;;;3.88;3.58;;;;;;;;;;5005157;28;20038;-72
2022/01/20 09:00:42;;;;;;;3.95;3.58;;;;;;;;;;4985843;28;20034;-71
2022/01/20 09:03:09;;;;;;;5.05;4.18;;;;;;;;;;4987876;28;20046;-71
2022/01/20 09:05:37;;;;;;;4.70;3.45;;;;;;;;;;4987195;28;20047;-70
2022/01/20 09:08:26;;;;;;;3.38;3.08;;;;;;;;;;4987525;28;20038;-71
2022/01/20 09:11:18;;;;;;;4.10;3.65;;;;;;;;;;4987601;28;20101;-71
2022/01/20 09:16:35;;;;;;;3.97;3.10;;;;;;;;;;4986350;28;20121;-71
2022/01/20 09:19:14;;;;;;;6.45;3.70;;;;;;;;;;4987665;28;20129;-70
2022/01/20 09:21:54;;;;;;;3.40;3.10;;;;;;;;;;4986050;28;20042;-70
2022/01/20 09:24:22;;;;;;;3.90;3.35;;;;;;;;;;4976443;28;20035;-71
2022/01/20 09:26:50;;;;;;;4.55;3.10;;;;;;;;;;4965690;28;20122;-71
2022/01/20 09:29:18;;;;;;;4.00;2.90;;;;;;;;;;4986438;28;20553;-71
2022/01/20 09:31:46;;;;;;;3.38;2.78;;;;;;;;;;4986116;28;20114;-71
2022/01/20 09:34:21;;;;;;;3.88;2.55;;;;;;;;;;4988481;28;20037;-71
2022/01/20 09:36:49;;;;;;;3.70;3.28;;;;;;;;;;4988547;28;20088;-71
2022/01/20 09:39:17;;;;;;;3.83;3.22;;;;;;;;;;5003801;28;20045;-71
2022/01/20 09:41:54;;;;;;;5.25;3.80;;;;;;;;;;4999119;28;20473;-71
2022/01/20 09:44:24;;;;;;;5.07;3.63;;;;;;;;;;5003855;28;20070;-71
2022/01/20 09:46:52;;;;;;;4.47;3.47;;;;;;;;;;4984141;28;20042;-72
2022/01/20 09:49:58;;;;;;;3.00;2.65;;;;;;;;;;4982422;28;20042;-71
2022/01/20 09:52:32;;;;;;;5.38;3.30;;;;;;;;;;4973156;28;20046;-71
2022/01/20 09:55:19;;;;;;;4.28;3.22;;;;;;;;;;4987972;28;20054;-71
2022/01/20 09:57:46;;;;;;;3.63;2.97;;;;;;;;;;4989639;28;20044;-71
2022/01/20 10:00:15;;;;;;;3.33;2.92;;;;;;;;;;4990552;28;20066;-72
2022/01/20 10:02:55;;;;;;;4.20;3.75;;;;;;;;;;4990928;28;20413;-72
2022/01/20 10:05:24;;;;;;;3.45;3.10;;;;;;;;;;5004875;28;20042;-71
2022/01/20 10:07:52;;;;;;;2.83;2.60;;;;;;;;;;4984613;28;20042;-72
2022/01/20 10:10:46;;;;;;;4.32;3.13;;;;;;;;;;4989399;28;20058;-72
2022/01/20 10:13:34;;;;;;;7.03;3.72;;;;;;;;;;4990784;28;20062;-71
2022/01/20 10:16:12;;;;;;;3.20;2.88;;;;;;;;;;4984215;28;20046;-72
2022/01/20 10:18:53;;;;;;;3.75;3.20;;;;;;;;;;4991334;28;20038;-72
2022/01/20 10:21:29;;;;;;;3.13;2.60;;;;;;;;;;4990533;28;20130;-72
2022/01/20 10:24:09;;;;;;;4.95;3.28;;;;;;;;;;4971623;28;20486;-72
2022/01/20 10:26:49;;;;;;;3.80;3.47;;;;;;;;;;4987300;28;20553;-72
2022/01/20 10:29:16;;;;;;;5.43;3.20;;;;;;;;;;4988818;28;20511;-72
2022/01/20 10:32:04;;;;;;;6.53;3.25;;;;;;;;;;4984282;28;20046;-72
2022/01/20 10:34:35;;;;;;;4.07;2.90;;;;;;;;;;4980946;28;20138;-72
2022/01/20 10:37:15;;;;;;;5.03;3.20;;;;;;;;;;4987013;28;20892;-71
2022/01/20 10:40:08;;;;;;;3.65;2.30;;;;;;;;;;4982848;28;20047;-72
2022/01/20 10:42:36;;;;;;;3.92;2.90;;;;;;;;;;4973029;28;20077;-72
2022/01/20 10:45:04;;;;;;;2.85;2.47;;;;;;;;;;4980790;28;20049;-72
2022/01/20 10:47:36;;;;;;;4.00;2.90;;;;;;;;;;4971429;28;20042;-72
2022/01/20 10:50:14;;;;;;;5.75;3.05;;;;;;;;;;4984080;28;20295;-72
2022/01/20 10:52:49;;;;;;;3.72;3.10;;;;;;;;;;4980201;28;20050;-71
2022/01/20 10:55:26;;;;;;;5.45;3.67;;;;;;;;;;4989332;28;20042;-72
2022/01/20 10:58:08;;;;;;;5.38;2.38;;;;;;;;;;4988429;28;20105;-71
2022/01/20 11:00:40;;;;;;;2.83;2.40;;;;;;;;;;4988898;28;20449;-71
2022/01/20 11:03:08;;;;;;;;;;;;;;;;;;4987339;28;20042;-72
2022/01/20 11:05:38;;;;;;;7.95;2.75;;;;;;;;;;4987141;28;19928;-71
2022/01/20 11:08:08;;;;;;;3.28;2.63;;;;;;;;;;4972329;28;20174;-71
2022/01/20 11:10:39;;;;;;;3.80;3.38;;;;;;;;;;4985381;28;20042;-72
2022/01/20 11:13:41;;;;;;;3.92;2.90;;;;;;;;;;4963631;28;20053;-71
2022/01/20 11:16:09;;;;;;;4.53;2.33;;;;;;;;;;4988873;28;20035;-71
2022/01/20 11:18:37;;;;;;;3.58;2.88;;;;;;;;;;4988071;28;20127;-72
2022/01/20 11:21:06;;;;;;;3.95;2.28;;;;;;;;;;4976088;28;20077;-71
2022/01/20 11:23:41;;;;;;;6.00;2.67;;;;;;;;;;4985792;28;20044;-74
2022/01/20 11:26:48;;;;;;;5.88;1.88;;;;;;;;;;4969368;28;20054;-73
2022/01/20 11:29:38;;;;;;;3.85;3.15;;;;;;;;;;4954275;28;20057;-73
2022/01/20 11:32:33;;;;;;;1.83;1.73;;;;;;;;;;4977054;28;20054;-70
2022/01/20 11:35:13;;;;;;;4.25;2.22;;;;;;;;;;4997592;28;20066;-71
2022/01/20 11:37:42;;;;;;;2.55;2.03;;;;;;;;;;4985537;28;20047;-71
2022/01/20 11:40:20;;;;;;;7.32;1.45;;;;;;;;;;4982321;28;20125;-72
2022/01/20 11:43:08;;;;;;;2.33;2.00;;;;;;;;;;4985872;28;20045;-71
2022/01/20 11:45:40;;;;;;;2.40;2.00;;;;;;;;;;4981705;28;20038;-73
2022/01/20 11:48:15;;;;;;;1.95;1.40;;;;;;;;;;4981465;28;20137;-72
2022/01/20 11:50:43;;;;;;;1.80;1.70;;;;;;;;;;4976914;28;20066;-73
2022/01/20 11:53:21;;;;;;;7.93;1.60;;;;;;;;;;4978176;28;20050;-72
2022/01/20 11:55:50;;;;;;;2.00;1.80;;;;;;;;;;4982900;28;20070;-71
2022/01/20 11:58:22;;;;;;;2.20;1.67;;;;;;;;;;4982158;28;20774;-71
2022/01/20 12:01:03;;;;;;;1.98;1.80;;;;;;;;;;4977255;28;20085;-71
2022/01/20 12:03:32;;;;;;;5.03;1.63;;;;;;;;;;4981596;28;20054;-71
2022/01/20 12:06:09;;;;;;;3.03;1.70;;;;;;;;;;4963951;28;20255;-71
2022/01/20 12:08:57;;;;;;;2.65;1.83;;;;;;;;;;4980833;28;20053;-72
2022/01/20 12:11:41;;;;;;;2.13;1.80;;;;;;;;;;4984034;28;20050;-71
2022/01/20 12:14:09;;;;;;;1.40;1.30;;;;;;;;;;4988646;28;20100;-73
2022/01/20 12:16:38;;;;;;;2.03;1.92;;;;;;;;;;4954815;28;20796;-72
2022/01/20 12:19:08;;;;;;;1.88;1.48;;;;;;;;;;4984659;28;20105;-71
2022/01/20 12:21:37;;;;;;;4.28;2.40;;;;;;;;;;4987032;28;20054;-72
2022/01/20 12:24:08;;;;;;;2.30;1.35;;;;;;;;;;4971393;28;20211;-71
2022/01/20 12:26:38;;;;;;;4.95;1.92;;;;;;;;;;4975066;28;20145;-70
2022/01/20 12:29:10;;;;;;;3.80;1.52;;;;;;;;;;4974579;28;20505;-71
2022/01/20 12:31:53;;;;;;;5.20;1.77;;;;;;;;;;4989980;28;20050;-71
2022/01/20 12:34:21;;;;;;;;;;;;;;;;;;4974164;28;20561;-71
2022/01/20 12:36:55;;;;;;;4.22;1.70;;;;;;;;;;4971323;28;20007;-72
2022/01/20 12:39:25;;;;;;;3.85;1.55;;;;;;;;;;4974965;28;20042;-71
2022/01/20 12:41:54;;;;;;;4.50;1.83;;;;;;;;;;4977063;28;20042;-71
2022/01/20 12:44:23;;;;;;;2.25;1.60;;;;;;;;;;4973442;28;20458;-71
2022/01/20 12:46:51;;;;;;;3.88;1.98;;;;;;;;;;4973100;28;20854;-71
2022/01/20 12:49:19;;;;;;;2.15;1.80;;;;;;;;;;4977267;28;20042;-71
2022/01/20 12:51:51;;;;;;;2.03;1.35;;;;;;;;;;4974684;28;20536;-71
2022/01/20 12:54:29;;;;;;;2.28;1.20;;;;;;;;;;4976031;28;20542;-71
2022/01/20 12:56:58;;;;;;;3.13;1.30;;;;;;;;;;4976220;28;20121;-71
2022/01/20 12:59:30;;;;;;;4.82;1.27;;;;;;;;;;4976062;28;20138;-71
2022/01/20 13:02:01;;;;;;;2.47;1.42;;;;;;;;;;4974188;28;20050;-72
2022/01/20 13:04:30;;;;;;;2.40;1.42;;;;;;;;;;4977638;28;20422;-72
2022/01/20 13:07:00;;;;;;;5.90;2.13;;;;;;;;;;4978369;28;20050;-71
2022/01/20 13:09:46;;;;;;;2.47;1.33;;;;;;;;;;4958707;28;20051;-70
2022/01/20 13:12:17;;;;;;;2.03;1.58;;;;;;;;;;4974434;28;20042;-71
2022/01/20 13:14:45;;;;;;;1.77;1.50;;;;;;;;;;4974129;28;20503;-72
2022/01/20 13:17:19;;;;;;;2.25;1.48;;;;;;;;;;4971280;28;20050;-71
2022/01/20 13:19:48;;;;;;;3.17;1.30;;;;;;;;;;4974531;28;20078;-71
2022/01/20 13:22:25;;;;;;;3.65;1.35;;;;;;;;;;4972259;28;20096;-72
2022/01/20 13:24:53;;;;;;;6.25;2.95;;;;;;;;;;4975804;28;20073;-72
2022/01/20 13:27:21;;;;;;;2.80;1.77;;;;;;;;;;4976856;28;20074;-71
2022/01/20 13:29:49;;;;;;;2.72;1.65;;;;;;;;;;4975791;28;20128;-71
2022/01/20 13:32:17;;;;;;;1.45;1.35;;;;;;;;;;4975212;28;20054;-72
2022/01/20 13:34:59;;;;;;;1.05;1.02;;;;;;;;;;4972326;28;20046;-71
2022/01/20 13:37:29;;;;;;;3.53;1.85;;;;;;;;;;4971905;28;20042;-72
2022/01/20 13:39:58;;;;;;;2.88;0.95;;;;;;;;;;4973158;28;20403;-71
2022/01/20 13:42:33;;;;;;;4.15;1.05;;;;;;;;;;4972004;28;20522;-71
2022/01/20 13:45:15;;;;;;;2.67;0.75;;;;;;;;;;4973425;28;20396;-71
2022/01/20 13:47:49;;;;;;;3.15;0.70;;;;;;;;;;4973631;28;20128;-71
2022/01/20 13:50:21;;;;;;;2.25;0.70;;;;;;;;;;4973658;28;20076;-73
2022/01/20 13:52:48;;;;;;;2.40;0.73;;;;;;;;;;4974924;28;20038;-72
2022/01/20 13:55:25;;;;;;;2.22;1.75;;;;;;;;;;4940604;28;20049;-72
2022/01/20 13:58:00;;;;;;;0.95;0.90;;;;;;;;;;4970701;28;20062;-71
2022/01/20 14:00:29;;;;;;;3.83;1.02;;;;;;;;;;4974776;28;20051;-71
2022/01/20 14:02:59;;;;;;;2.78;1.52;;;;;;;;;;4973770;28;20054;-72
2022/01/20 14:05:33;;;;;;;0.80;0.80;;;;;;;;;;4974404;28;20034;-71
2022/01/20 14:08:02;;;;;;;5.03;1.30;;;;;;;;;;4976488;28;20046;-71
2022/01/20 14:10:29;;;;;;;3.08;1.40;;;;;;;;;;4975181;28;20142;-71
2022/01/20 14:12:58;;;;;;;4.20;1.45;;;;;;;;;;4970814;28;20096;-72
2022/01/20 14:15:26;;;;;;;1.00;1.00;;;;;;;;;;4965188;28;20057;-72
2022/01/20 14:17:58;;;;;;;4.20;1.48;;;;;;;;;;4968458;28;20066;-72
2022/01/20 14:20:27;;;;;;;2.60;1.40;;;;;;;;;;4972178;28;20506;-72
2022/01/20 14:22:55;;;;;;;5.90;1.23;;;;;;;;;;4970728;28;20473;-72
2022/01/20 14:25:23;;;;;;;2.58;1.65;;;;;;;;;;4974654;28;20137;-72
2022/01/20 14:27:52;;;;;;;2.90;2.05;;;;;;;;;;4976188;28;20663;-72
2022/01/20 14:30:22;;;;;;;4.30;1.48;;;;;;;;;;4977294;28;20077;-72
2022/01/20 14:32:50;;;;;;;4.78;1.80;;;;;;;;;;4978887;28;20366;-72
2022/01/20 14:35:17;;;;;;;5.68;2.00;;;;;;;;;;4977899;28;20289;-73
2022/01/20 14:37:45;;;;;;;4.68;2.03;;;;;;;;;;4978669;28;20059;-72
2022/01/20 14:40:17;;;;;;;4.13;1.20;;;;;;;;;;4974963;28;20046;-72
2022/01/20 14:42:48;;;;;;;3.03;1.42;;;;;;;;;;4944352;28;20046;-73
2022/01/20 14:45:20;;;;;;;2.75;1.27;;;;;;;;;;4908599;28;20098;-72
2022/01/20 14:47:52;;;;;;;1.77;1.20;;;;;;;;;;4942190;28;20199;-72
2022/01/20 14:50:28;;;;;;;5.20;1.95;;;;;;;;;;4955669;28;20183;-72
2022/01/20 14:52:59;;;;;;;1.70;1.23;;;;;;;;;;4959284;28;20142;-72
2022/01/20 14:55:27;;;;;;;4.35;2.95;;;;;;;;;;4941596;28;20097;-72
2022/01/20 14:57:55;;;;;;;4.63;1.80;;;;;;;;;;4924192;28;20105;-73
2022/01/20 15:00:25;;;;;;;5.40;2.90;;;;;;;;;;4918940;28;20054;-73
2022/01/20 15:02:53;;;;;;;6.32;2.90;;;;;;;;;;4941902;28;20071;-72
2022/01/20 15:05:24;;;;;;;9.80;3.20;;;;;;;;;;4941388;28;20074;-72
2022/01/20 15:07:54;;;;;;;5.90;2.97;;;;;;;;;;4955252;28;20541;-72
2022/01/20 15:10:24;;;;;;;17.52;5.60;;;;;;;;;;4942333;28;20129;-72
2022/01/20 15:13:00;;;;;;;17.70;14.00;;;;;;;;;;4924180;28;20541;-72
2022/01/20 15:15:30;;;;;;;13.07;5.43;;;;;;;;;;4960280;28;20260;-72
2022/01/20 15:17:57;;;;;;;6.63;3.60;;;;;;;;;;4977759;28;20271;-72
2022/01/20 15:20:48;;;;;;;5.10;2.65;;;;;;;;;;4974999;28;20128;-73
2022/01/20 15:23:18;;;;;;;6.07;2.20;;;;;;;;;;4973727;28;20158;-72
2022/01/20 15:25:47;;;;;;;2.58;1.60;;;;;;;;;;4977422;28;20059;-72
2022/01/20 15:28:15;;;;;;;2.92;1.60;;;;;;;;;;4977152;28;20789;-72
2022/01/20 15:30:43;;;;;;;8.45;3.25;;;;;;;;;;4977182;28;20141;-72
2022/01/20 15:33:10;;;;;;;3.60;1.65;;;;;;;;;;4975119;28;20065;-71
2022/01/20 15:35:38;;;;;;;4.10;1.23;;;;;;;;;;4977756;28;20042;-73
2022/01/20 15:38:06;;;;;;;3.53;1.73;;;;;;;;;;4977290;28;20108;-72
2022/01/20 15:40:33;;;;;;;4.47;1.90;;;;;;;;;;4975910;28;20089;-72
2022/01/20 15:43:01;;;;;;;2.80;1.40;;;;;;;;;;4979088;28;20046;-72
2022/01/20 15:45:28;;;;;;;2.30;1.40;;;;;;;;;;4975140;28;20055;-73
2022/01/20 15:47:55;;;;;;;4.15;1.65;;;;;;;;;;4972388;28;20138;-72
2022/01/20 15:50:23;;;;;;;5.75;1.88;;;;;;;;;;4974565;28;20425;-72
2022/01/20 15:52:50;;;;;;;4.65;1.67;;;;;;;;;;4974841;28;20129;-73
2022/01/20 15:55:17;;;;;;;4.30;1.42;;;;;;;;;;4978261;28;20038;-72
2022/01/20 15:57:45;;;;;;;6.53;1.60;;;;;;;;;;4972224;28;20043;-72
2022/01/20 16:00:13;;;;;;;4.07;1.55;;;;;;;;;;4973736;28;20073;-72
2022/01/20 16:02:41;;;;;;;6.40;1.70;;;;;;;;;;5054094;23;20052;-72
2022/01/20 16:05:11;;;;;;;5.10;1.70;;;;;;;;;;5032066;28;20250;-72
2022/01/20 16:07:39;;;;;;;4.28;1.40;;;;;;;;;;5031223;28;20045;-72
2022/01/20 16:10:07;;;;;;;3.47;1.33;;;;;;;;;;5033415;28;20152;-72
2022/01/20 16:12:34;;;;;;;3.95;1.80;;;;;;;;;;5036229;28;20064;-71